createdAt,value
2022-10-14T00:01:18.634Z,16.40
2022-10-14T00:03:45.579Z,16.30
2022-10-14T00:06:17.909Z,16.30
2022-10-14T00:08:47.356Z,16.50
2022-10-14T00:11:24.481Z,16.40
2022-10-14T00:13:54.722Z,16.40
2022-10-14T00:16:24.936Z,16.60
2022-10-14T00:18:52.277Z,16.50
2022-10-14T00:21:19.982Z,16.50
2022-10-14T00:23:47.491Z,16.50
2022-10-14T00:26:19.926Z,16.40
2022-10-14T00:28:47.333Z,16.30
2022-10-14T00:31:14.734Z,16.20
2022-10-14T00:33:41.814Z,16.20
2022-10-14T00:36:10.903Z,16.20
2022-10-14T00:38:37.664Z,16.40
2022-10-14T00:41:04.775Z,16.40
2022-10-14T00:43:51.125Z,16.30
2022-10-14T00:46:19.133Z,16.40
2022-10-14T00:48:46.501Z,16.50
2022-10-14T00:51:13.996Z,16.30
2022-10-14T00:53:43.740Z,16.40
2022-10-14T00:56:12.897Z,16.40
2022-10-14T00:58:40.067Z,16.30
2022-10-14T01:01:08.344Z,16.30
2022-10-14T01:03:35.277Z,16.40
2022-10-14T01:06:13.893Z,16.30
2022-10-14T01:08:48.263Z,16.40
2022-10-14T01:11:41.482Z,16.40
2022-10-14T01:14:36.394Z,16.50
2022-10-14T01:17:18.655Z,16.50
2022-10-14T01:20:05.367Z,16.50
2022-10-14T01:22:39.373Z,16.30
2022-10-14T01:25:21.208Z,16.40
2022-10-14T01:27:52.281Z,16.50
2022-10-14T01:30:21.639Z,16.40
2022-10-14T01:33:22.395Z,16.30
2022-10-14T01:35:57.766Z,16.40
2022-10-14T01:38:30.531Z,16.40
2022-10-14T01:41:04.305Z,16.30
2022-10-14T01:43:33.309Z,16.40
2022-10-14T01:46:04.200Z,16.50
2022-10-14T01:48:37.037Z,16.40
2022-10-14T01:51:11.885Z,16.50
2022-10-14T01:53:43.822Z,16.60
2022-10-14T01:56:12.673Z,16.50
2022-10-14T01:58:40.740Z,16.40
2022-10-14T02:01:09.586Z,16.40
2022-10-14T02:03:42.475Z,16.30
2022-10-14T02:06:33.781Z,16.20
2022-10-14T02:09:33.084Z,16.30
2022-10-14T02:12:23.556Z,16.40
2022-10-14T02:15:12.114Z,16.50
2022-10-14T02:18:03.034Z,16.40
2022-10-14T02:20:36.538Z,16.50
2022-10-14T02:23:16.323Z,16.50
2022-10-14T02:25:46.713Z,16.40
2022-10-14T02:28:19.149Z,16.50
2022-10-14T02:30:52.253Z,16.50
2022-10-14T02:33:22.998Z,16.50
2022-10-14T02:35:51.371Z,16.40
2022-10-14T02:38:20.212Z,16.30
2022-10-14T02:40:49.888Z,16.30
2022-10-14T02:43:18.273Z,16.60
2022-10-14T02:45:45.351Z,16.50
2022-10-14T02:48:12.855Z,16.40
2022-10-14T02:50:41.022Z,16.30
2022-10-14T02:53:08.084Z,16.30
2022-10-14T02:55:34.939Z,16.10
2022-10-14T02:58:01.751Z,16.30
2022-10-14T03:00:28.893Z,16.30
2022-10-14T03:02:55.873Z,16.30
2022-10-14T03:05:23.001Z,16.30
2022-10-14T03:07:50.187Z,16.30
2022-10-14T03:10:17.667Z,16.30
2022-10-14T03:12:44.892Z,16.20
2022-10-14T03:15:12.080Z,16.30
2022-10-14T03:17:38.974Z,16.30
2022-10-14T03:20:07.180Z,16.40
2022-10-14T03:22:34.121Z,16.40
2022-10-14T03:25:01.149Z,16.30
2022-10-14T03:27:28.179Z,16.30
2022-10-14T03:29:55.052Z,16.50
2022-10-14T03:32:22.237Z,16.40
2022-10-14T03:34:49.209Z,16.30
2022-10-14T03:37:16.327Z,16.20
2022-10-14T03:39:43.253Z,16.30
2022-10-14T03:42:10.103Z,16.40
2022-10-14T03:44:37.047Z,16.40
2022-10-14T03:47:04.829Z,16.20
2022-10-14T03:49:32.101Z,16.30
2022-10-14T03:51:58.922Z,16.30
2022-10-14T03:54:25.954Z,16.30
2022-10-14T03:56:53.013Z,16.40
2022-10-14T03:59:19.853Z,16.30
2022-10-14T04:01:46.944Z,16.40
2022-10-14T04:04:13.962Z,16.40
2022-10-14T04:06:40.920Z,16.40
2022-10-14T04:09:07.660Z,16.30
2022-10-14T04:11:34.492Z,16.20
2022-10-14T04:14:01.532Z,16.40
2022-10-14T04:16:28.364Z,16.30
2022-10-14T04:18:55.138Z,16.40
2022-10-14T04:21:21.985Z,16.40
2022-10-14T04:23:48.876Z,16.40
2022-10-14T04:26:15.942Z,16.50
2022-10-14T04:28:42.902Z,16.30
2022-10-14T04:31:09.959Z,16.30
2022-10-14T04:33:37.152Z,16.20
2022-10-14T04:36:06.461Z,16.30
2022-10-14T04:38:33.786Z,16.40
2022-10-14T04:41:01.072Z,16.40
2022-10-14T04:43:27.940Z,16.40
2022-10-14T04:45:54.913Z,16.40
2022-10-14T04:48:21.940Z,16.30
2022-10-14T04:50:52.993Z,16.20
2022-10-14T04:53:22.249Z,16.20
2022-10-14T04:55:50.149Z,16.20
2022-10-14T04:58:17.273Z,16.20
2022-10-14T05:00:44.298Z,16.20
2022-10-14T05:03:11.554Z,16.10
2022-10-14T05:05:38.691Z,16.10
2022-10-14T05:08:06.429Z,16.10
2022-10-14T05:10:34.122Z,16.20
2022-10-14T05:13:01.045Z,16.30
2022-10-14T05:15:28.280Z,16.20
2022-10-14T05:17:55.573Z,16.30
2022-10-14T05:20:22.490Z,16.30
2022-10-14T05:22:49.554Z,16.30
2022-10-14T05:25:16.687Z,16.40
2022-10-14T05:27:47.099Z,16.30
2022-10-14T05:30:14.558Z,16.30
2022-10-14T05:32:41.408Z,16.30
2022-10-14T05:35:08.496Z,16.30
2022-10-14T05:37:35.398Z,16.40
2022-10-14T05:40:02.494Z,16.20
2022-10-14T05:42:29.384Z,16.00
2022-10-14T05:44:56.461Z,16.00
2022-10-14T05:47:24.293Z,16.10
2022-10-14T05:49:51.312Z,16.00
2022-10-14T05:52:19.114Z,16.10
2022-10-14T05:54:46.376Z,16.20
2022-10-14T05:57:13.324Z,16.30
2022-10-14T05:59:40.292Z,16.20
2022-10-14T06:02:08.728Z,16.20
2022-10-14T06:04:35.660Z,16.30
2022-10-14T06:07:03.518Z,16.30
2022-10-14T06:09:31.358Z,16.20
2022-10-14T06:11:58.165Z,16.20
2022-10-14T06:14:25.282Z,16.20
2022-10-14T06:16:52.464Z,16.20
2022-10-14T06:19:19.506Z,16.20
2022-10-14T06:21:46.445Z,16.30
2022-10-14T06:24:13.327Z,16.40
2022-10-14T06:26:40.221Z,16.40
2022-10-14T06:29:07.279Z,16.30
2022-10-14T06:31:34.580Z,16.30
2022-10-14T06:34:05.915Z,16.20
2022-10-14T06:36:33.238Z,16.10
2022-10-14T06:39:00.373Z,16.10
2022-10-14T06:41:27.499Z,16.20
2022-10-14T06:43:54.338Z,16.20
2022-10-14T06:46:21.630Z,16.30
2022-10-14T06:48:50.409Z,16.30
2022-10-14T06:51:18.016Z,16.30
2022-10-14T06:53:44.952Z,16.20
2022-10-14T06:56:12.273Z,16.30
2022-10-14T06:58:39.378Z,16.20
2022-10-14T07:01:08.199Z,16.40
2022-10-14T07:03:36.781Z,16.20
2022-10-14T07:06:08.084Z,16.10
2022-10-14T07:08:35.396Z,16.10
2022-10-14T07:11:02.798Z,16.10
2022-10-14T07:13:30.048Z,16.20
2022-10-14T07:15:57.250Z,16.20
2022-10-14T07:18:24.438Z,16.10
2022-10-14T07:20:52.214Z,16.10
2022-10-14T07:23:19.225Z,16.10
2022-10-14T07:25:46.265Z,16.00
2022-10-14T07:28:13.357Z,16.20
2022-10-14T07:30:40.604Z,16.30
2022-10-14T07:33:07.631Z,16.20
2022-10-14T07:35:35.577Z,16.20
2022-10-14T07:38:02.809Z,16.30
2022-10-14T07:40:29.900Z,16.30
2022-10-14T07:42:57.513Z,16.40
2022-10-14T07:45:24.725Z,16.30
2022-10-14T07:47:51.911Z,16.30
2022-10-14T07:50:19.716Z,16.10
2022-10-14T07:52:46.622Z,16.00
2022-10-14T07:55:13.800Z,16.20
2022-10-14T07:57:41.032Z,16.20
2022-10-14T08:00:09.198Z,16.40
2022-10-14T08:02:36.005Z,16.60
2022-10-14T08:05:19.352Z,16.60
2022-10-14T08:07:51.587Z,16.50
2022-10-14T08:10:18.788Z,16.50
2022-10-14T08:12:46.337Z,16.60
2022-10-14T08:15:13.354Z,16.60
2022-10-14T08:17:40.374Z,16.50
2022-10-14T08:20:07.733Z,16.40
2022-10-14T08:22:34.577Z,16.40
2022-10-14T08:25:01.533Z,16.30
2022-10-14T08:27:28.497Z,16.40
2022-10-14T08:29:55.360Z,16.30
2022-10-14T08:32:23.673Z,16.40
2022-10-14T08:34:51.050Z,16.60
2022-10-14T08:37:17.949Z,16.40
2022-10-14T08:39:44.967Z,16.50
2022-10-14T08:42:30.382Z,16.50
2022-10-14T08:45:26.803Z,16.40
2022-10-14T08:47:57.292Z,16.30
2022-10-14T08:50:43.307Z,16.20
2022-10-14T08:53:36.298Z,16.40
2022-10-14T08:56:03.580Z,16.40
2022-10-14T08:58:52.701Z,16.60
2022-10-14T09:01:22.165Z,16.60
2022-10-14T09:03:50.342Z,16.80
2022-10-14T09:06:32.355Z,16.90
2022-10-14T09:09:14.275Z,16.90
2022-10-14T09:11:45.269Z,16.80
2022-10-14T09:14:35.987Z,17.00
2022-10-14T09:19:46.953Z,16.60
2022-10-14T09:22:15.608Z,16.80
2022-10-14T09:24:46.182Z,16.70
2022-10-14T09:27:17.400Z,16.60
2022-10-14T09:30:09.137Z,16.60
2022-10-14T09:32:39.430Z,16.80
2022-10-14T09:35:19.114Z,16.80
2022-10-14T09:37:46.213Z,16.80
2022-10-14T09:40:13.387Z,16.80
2022-10-14T09:43:03.854Z,16.80
2022-10-14T09:45:48.125Z,16.90
2022-10-14T09:48:44.037Z,16.90
2022-10-14T09:51:27.371Z,17.10
2022-10-14T09:54:04.824Z,17.40
2022-10-14T09:56:42.727Z,17.40
2022-10-14T09:59:22.302Z,17.40
2022-10-14T10:01:59.338Z,17.40
2022-10-14T10:04:32.087Z,17.40
2022-10-14T10:07:01.723Z,17.50
2022-10-14T10:09:29.022Z,17.70
2022-10-14T10:11:55.957Z,17.80
2022-10-14T10:14:33.753Z,17.90
2022-10-14T10:17:12.943Z,18.10
2022-10-14T10:19:47.874Z,18.20
2022-10-14T10:24:47.938Z,17.90
2022-10-14T10:27:28.648Z,18.00
2022-10-14T10:29:56.302Z,18.10
2022-10-14T10:32:42.737Z,18.20
2022-10-14T10:35:33.881Z,18.30
2022-10-14T10:38:22.453Z,18.30
2022-10-14T10:41:08.555Z,18.40
2022-10-14T10:43:58.178Z,18.70
2022-10-14T10:46:45.319Z,19.10
2022-10-14T10:49:15.097Z,19.20
2022-10-14T10:52:00.214Z,19.50
2022-10-14T10:54:44.960Z,19.90
2022-10-14T10:57:24.976Z,20.10
2022-10-14T11:00:03.079Z,20.50
2022-10-14T11:02:51.705Z,21.00
2022-10-14T11:05:29.586Z,21.40
2022-10-14T11:08:22.403Z,21.40
2022-10-14T11:11:16.406Z,21.60
2022-10-14T11:14:00.141Z,20.90
2022-10-14T11:16:42.896Z,20.70
2022-10-14T11:19:27.048Z,20.80
2022-10-14T11:22:08.259Z,20.70
2022-10-14T11:25:07.058Z,20.70
2022-10-14T11:27:43.658Z,20.50
2022-10-14T11:30:15.706Z,21.30
2022-10-14T11:33:00.209Z,21.30
2022-10-14T11:36:04.949Z,21.50
2022-10-14T11:38:38.607Z,21.30
2022-10-14T11:41:30.542Z,20.90
2022-10-14T11:44:01.160Z,21.20
2022-10-14T11:46:32.902Z,21.70
2022-10-14T11:49:05.742Z,21.90
2022-10-14T11:51:42.388Z,21.70
2022-10-14T11:54:09.227Z,22.10
2022-10-14T11:56:40.236Z,22.70
2022-10-14T11:59:36.759Z,22.80
2022-10-14T12:02:18.656Z,22.90
2022-10-14T12:04:52.539Z,22.90
2022-10-14T12:07:26.552Z,22.30
2022-10-14T12:10:03.301Z,22.10
2022-10-14T12:12:31.050Z,21.50
2022-10-14T12:15:06.392Z,20.80
2022-10-14T12:17:59.630Z,20.70
2022-10-14T12:20:55.939Z,20.30
2022-10-14T12:23:34.909Z,20.10
2022-10-14T12:26:13.330Z,20.50
2022-10-14T12:28:40.823Z,20.50
2022-10-14T12:31:33.428Z,20.50
2022-10-14T12:34:13.643Z,20.60
2022-10-14T12:36:43.204Z,20.30
2022-10-14T12:39:19.403Z,20.10
2022-10-14T12:42:12.301Z,20.10
2022-10-14T12:44:49.179Z,19.90
2022-10-14T12:47:25.117Z,19.80
2022-10-14T12:49:58.754Z,19.90
2022-10-14T12:52:31.070Z,20.10
2022-10-14T12:55:00.221Z,20.00
2022-10-14T12:57:32.313Z,20.20
2022-10-14T13:00:09.417Z,19.70
2022-10-14T13:02:46.032Z,20.10
2022-10-14T13:05:40.520Z,19.80
2022-10-14T13:08:16.199Z,20.10
2022-10-14T13:10:46.915Z,19.70
2022-10-14T13:13:38.750Z,19.40
2022-10-14T13:16:07.055Z,19.50
2022-10-14T13:18:35.699Z,19.70
2022-10-14T13:21:04.894Z,19.70
2022-10-14T13:23:55.966Z,19.70
2022-10-14T13:26:37.932Z,19.90
2022-10-14T13:29:16.180Z,19.40
2022-10-14T13:32:20.576Z,19.40
2022-10-14T13:35:07.690Z,19.80
2022-10-14T13:37:45.595Z,19.60
2022-10-14T13:40:31.767Z,19.80
2022-10-14T13:43:07.503Z,19.60
2022-10-14T13:45:43.731Z,19.80
2022-10-14T13:48:40.570Z,19.60
2022-10-14T13:51:24.439Z,19.70
2022-10-14T13:54:15.447Z,19.60
2022-10-14T13:57:42.677Z,20.00
2022-10-14T14:02:50.391Z,20.10
2022-10-14T14:05:21.581Z,19.90
2022-10-14T14:10:46.820Z,19.80
2022-10-14T14:13:25.078Z,19.80
2022-10-14T14:15:54.563Z,19.90
2022-10-14T14:18:56.213Z,19.60
2022-10-14T14:21:29.136Z,19.40
2022-10-14T14:24:01.330Z,19.50
2022-10-14T14:26:38.909Z,19.40
2022-10-14T14:29:18.473Z,19.50
2022-10-14T14:34:35.947Z,19.60
2022-10-14T14:37:32.008Z,19.60
2022-10-14T14:40:01.136Z,19.70
2022-10-14T14:42:35.998Z,20.00
2022-10-14T14:45:21.104Z,19.90
2022-10-14T14:47:50.438Z,19.70
2022-10-14T14:50:36.178Z,19.60
2022-10-14T14:53:18.884Z,19.90
2022-10-14T14:56:14.326Z,19.80
2022-10-14T14:58:47.255Z,19.70
2022-10-14T15:01:25.555Z,19.80
2022-10-14T15:04:14.723Z,19.60
2022-10-14T15:06:51.312Z,19.60
2022-10-14T15:09:25.398Z,19.60
2022-10-14T15:11:55.154Z,19.80
2022-10-14T15:14:33.112Z,19.90
2022-10-14T15:17:00.192Z,20.00
2022-10-14T15:19:28.458Z,19.90
2022-10-14T15:22:30.619Z,20.00
2022-10-14T15:25:02.611Z,19.90
2022-10-14T15:27:35.449Z,19.90
2022-10-14T15:30:17.843Z,20.00
2022-10-14T15:32:44.907Z,19.80
2022-10-14T15:35:17.415Z,19.90
2022-10-14T15:37:44.412Z,19.90
2022-10-14T15:40:15.578Z,19.50
2022-10-14T15:42:42.509Z,19.40
2022-10-14T15:45:10.712Z,19.40
2022-10-14T15:47:38.813Z,19.50
2022-10-14T15:50:08.482Z,19.60
2022-10-14T15:52:35.591Z,19.60
2022-10-14T15:55:09.058Z,19.30
2022-10-14T15:57:35.955Z,19.30
2022-10-14T16:00:03.054Z,19.40
2022-10-14T16:02:33.225Z,19.40
2022-10-14T16:05:19.321Z,19.40
2022-10-14T16:07:48.426Z,19.40
2022-10-14T16:10:20.845Z,19.40
2022-10-14T16:12:48.289Z,19.40
2022-10-14T16:15:24.526Z,19.40
2022-10-14T16:17:53.007Z,19.30
2022-10-14T16:20:21.715Z,18.80
2022-10-14T16:22:48.755Z,18.80
2022-10-14T16:25:36.135Z,18.90
2022-10-14T16:28:10.038Z,19.00
2022-10-14T16:30:45.907Z,18.80
2022-10-14T16:33:12.894Z,18.80
2022-10-14T16:35:40.091Z,18.60
2022-10-14T16:38:07.140Z,18.60
2022-10-14T16:40:36.742Z,18.50
2022-10-14T16:43:04.715Z,18.50
2022-10-14T16:45:32.336Z,18.50
2022-10-14T16:48:00.113Z,18.50
2022-10-14T16:50:27.186Z,18.40
2022-10-14T16:53:12.654Z,18.40
2022-10-14T16:55:39.666Z,18.30
2022-10-14T16:58:06.559Z,18.30
2022-10-14T17:00:33.520Z,18.10
2022-10-14T17:03:02.174Z,18.10
2022-10-14T17:05:29.253Z,18.00
2022-10-14T17:07:56.222Z,18.00
2022-10-14T17:10:23.402Z,17.80
2022-10-14T17:12:50.513Z,17.90
2022-10-14T17:15:17.722Z,17.90
2022-10-14T17:17:44.554Z,18.00
2022-10-14T17:20:12.407Z,18.10
2022-10-14T17:22:39.958Z,18.10
2022-10-14T17:25:08.574Z,18.00
2022-10-14T17:27:35.841Z,18.00
2022-10-14T17:30:03.669Z,17.90
2022-10-14T17:32:30.735Z,17.90
2022-10-14T17:34:57.897Z,17.80
2022-10-14T17:37:24.985Z,17.80
2022-10-14T17:39:51.990Z,17.90
2022-10-14T17:42:18.946Z,18.00
2022-10-14T17:44:46.017Z,18.00
2022-10-14T17:47:13.045Z,17.90
2022-10-14T17:49:43.498Z,17.90
2022-10-14T17:52:11.394Z,18.20
2022-10-14T17:54:38.868Z,18.20
2022-10-14T17:57:08.323Z,18.10
2022-10-14T17:59:35.554Z,18.20
2022-10-14T18:02:03.702Z,18.30
2022-10-14T18:04:32.812Z,18.30
2022-10-14T18:07:00.148Z,18.30
2022-10-14T18:09:27.067Z,18.30
2022-10-14T18:12:10.329Z,18.30
2022-10-14T18:14:41.735Z,18.20
2022-10-14T18:17:13.379Z,18.10
2022-10-14T18:19:41.730Z,18.00
2022-10-14T18:22:11.200Z,18.10
2022-10-14T18:24:39.399Z,17.90
2022-10-14T18:27:06.723Z,18.00
2022-10-14T18:29:33.727Z,18.00
2022-10-14T18:32:01.226Z,17.80
2022-10-14T18:34:28.351Z,17.80
2022-10-14T18:36:57.965Z,17.70
2022-10-14T18:39:25.426Z,17.60
2022-10-14T18:41:52.360Z,17.60
2022-10-14T18:44:19.622Z,17.70
2022-10-14T18:46:47.888Z,17.70
2022-10-14T18:49:15.292Z,17.70
2022-10-14T18:51:43.426Z,17.90
2022-10-14T18:54:19.127Z,17.90
2022-10-14T18:56:47.072Z,17.80
2022-10-14T18:59:18.291Z,17.60
2022-10-14T19:01:46.763Z,17.30
2022-10-14T19:04:16.660Z,17.40
2022-10-14T19:06:50.491Z,17.50
2022-10-14T19:09:20.440Z,17.50
2022-10-14T19:11:51.671Z,17.60
2022-10-14T19:14:18.788Z,17.80
2022-10-14T19:16:49.672Z,17.50
2022-10-14T19:19:19.779Z,17.40
2022-10-14T19:21:52.305Z,17.50
2022-10-14T19:24:19.660Z,17.70
2022-10-14T19:26:47.885Z,17.60
2022-10-14T19:29:16.371Z,17.70
2022-10-14T19:31:44.490Z,17.60
2022-10-14T19:34:13.733Z,17.50
2022-10-14T19:36:41.782Z,17.50
2022-10-14T19:39:11.914Z,17.50
2022-10-14T19:41:43.338Z,17.50
2022-10-14T19:44:11.500Z,17.50
2022-10-14T19:46:39.095Z,17.20
2022-10-14T19:49:08.106Z,17.00
2022-10-14T19:51:35.379Z,16.90
2022-10-14T19:54:02.681Z,16.90
2022-10-14T19:56:30.472Z,17.10
2022-10-14T19:58:58.999Z,17.20
2022-10-14T20:01:29.285Z,17.00
2022-10-14T20:03:57.182Z,17.00
2022-10-14T20:06:24.608Z,17.10
2022-10-14T20:08:51.753Z,17.00
2022-10-14T20:11:22.522Z,17.20
2022-10-14T20:13:49.433Z,17.00
2022-10-14T20:16:17.151Z,16.80
2022-10-14T20:18:44.296Z,17.00
2022-10-14T20:21:14.148Z,17.10
2022-10-14T20:23:42.354Z,17.10
2022-10-14T20:26:13.341Z,16.90
2022-10-14T20:28:40.796Z,17.00
2022-10-14T20:31:13.153Z,17.20
2022-10-14T20:33:40.624Z,16.90
2022-10-14T20:36:11.394Z,16.90
2022-10-14T20:38:39.194Z,17.10
2022-10-14T20:41:08.799Z,17.10
2022-10-14T20:43:35.735Z,17.20
2022-10-14T20:46:03.618Z,17.20
2022-10-14T20:48:30.698Z,17.20
2022-10-14T20:51:00.124Z,17.00
2022-10-14T20:53:28.870Z,17.10
2022-10-14T20:56:05.306Z,17.20
2022-10-14T20:58:32.602Z,17.30
2022-10-14T21:01:07.120Z,17.30
2022-10-14T21:03:34.260Z,17.20
2022-10-14T21:06:03.679Z,17.30
2022-10-14T21:08:31.295Z,17.20
2022-10-14T21:11:02.883Z,17.20
2022-10-14T21:13:30.754Z,17.50
2022-10-14T21:15:57.969Z,17.40
2022-10-14T21:18:25.502Z,17.20
2022-10-14T21:23:20.160Z,17.40
2022-10-14T21:25:56.087Z,17.40
2022-10-14T21:28:24.138Z,17.50
2022-10-14T21:30:51.742Z,17.30
2022-10-14T21:33:19.043Z,17.00
2022-10-14T21:35:46.369Z,17.00
2022-10-14T21:38:13.454Z,17.00
2022-10-14T21:40:40.342Z,17.10
2022-10-14T21:43:07.366Z,17.00
2022-10-14T21:45:34.536Z,16.90
2022-10-14T21:48:01.389Z,17.10
2022-10-14T21:50:28.242Z,17.00
2022-10-14T21:52:55.051Z,17.10
2022-10-14T21:55:22.176Z,17.10
2022-10-14T21:57:49.377Z,17.20
2022-10-14T22:00:16.581Z,17.20
2022-10-14T22:02:43.465Z,17.00
2022-10-14T22:05:10.288Z,16.60
2022-10-14T22:07:37.310Z,16.70
2022-10-14T22:10:24.420Z,16.80
2022-10-14T22:12:51.203Z,17.00
2022-10-14T22:15:18.010Z,16.80
2022-10-14T22:17:44.935Z,17.10
2022-10-14T22:20:11.944Z,17.00
2022-10-14T22:22:39.178Z,17.10
2022-10-14T22:25:06.697Z,17.00
2022-10-14T22:27:33.725Z,17.20
2022-10-14T22:30:00.643Z,17.20
2022-10-14T22:32:27.495Z,17.10
2022-10-14T22:34:54.482Z,17.20
2022-10-14T22:37:21.825Z,17.30
2022-10-14T22:39:48.922Z,17.10
2022-10-14T22:42:15.779Z,16.90
2022-10-14T22:44:42.609Z,17.10
2022-10-14T22:47:09.797Z,17.20
2022-10-14T22:49:36.759Z,17.40
2022-10-14T22:52:03.913Z,17.20
2022-10-14T22:54:30.718Z,16.90
2022-10-14T22:56:57.588Z,16.90
2022-10-14T22:59:24.558Z,17.00
2022-10-14T23:01:51.488Z,16.80
2022-10-14T23:04:18.273Z,17.10
2022-10-14T23:06:49.285Z,17.00
2022-10-14T23:09:16.750Z,17.00
2022-10-14T23:11:43.573Z,16.80
2022-10-14T23:14:10.342Z,17.00
2022-10-14T23:16:39.155Z,17.10
2022-10-14T23:19:06.399Z,17.10
2022-10-14T23:21:36.324Z,17.10
2022-10-14T23:24:10.612Z,17.10
2022-10-14T23:26:38.288Z,17.10
2022-10-14T23:29:11.743Z,17.00
2022-10-14T23:31:39.870Z,17.20
2022-10-14T23:34:10.504Z,17.10
2022-10-14T23:36:37.763Z,17.20
2022-10-14T23:39:05.156Z,17.00
2022-10-14T23:41:32.102Z,17.30
2022-10-14T23:43:59.085Z,17.20
2022-10-14T23:46:26.652Z,16.70
2022-10-14T23:49:07.025Z,16.40
2022-10-14T23:51:41.586Z,16.30
2022-10-14T23:54:08.397Z,16.50
2022-10-14T23:56:35.173Z,16.70
2022-10-14T23:59:02.205Z,16.60
